Time;durP1;ratioP1;P1;durP2;ratioP2;P2;SDS_P1;SDS_P2;PMS_P1;PMS_P2;Temp;Humidity;BMP_temperature;BMP_pressure;BME280_temperature;BME280_humidity;BME280_pressure;Samples;Min_cycle;Max_cycle;Signal;HPM_P1;HPM_P2
2023/08/22 00:02:20;;;;;;;23.50;16.73;;;19.30;99.90;;;;;;8400327;28;20050;-81
2023/08/22 00:06:21;;;;;;;21.15;17.63;;;19.30;99.90;;;;;;8386762;28;20492;-82
2023/08/22 00:10:21;;;;;;;27.13;19.52;;;19.00;99.90;;;;;;8400274;28;20021;-82
2023/08/22 00:14:22;;;;;;;22.50;18.85;;;18.90;99.90;;;;;;8386099;28;20020;-83
2023/08/22 00:18:23;;;;;;;21.88;17.30;;;18.90;99.90;;;;;;8376422;28;20401;-82
2023/08/22 00:22:23;;;;;;;24.60;20.10;;;18.80;99.90;;;;;;8397964;28;20031;-83
2023/08/22 00:26:24;;;;;;;27.75;19.98;;;18.70;99.90;;;;;;8383916;28;20073;-83
2023/08/22 00:30:24;;;;;;;21.48;18.25;;;18.70;99.90;;;;;;8402994;28;20024;-82
2023/08/22 00:34:25;;;;;;;24.95;21.20;;;18.60;99.90;;;;;;8388184;28;20036;-82
2023/08/22 00:38:26;;;;;;;30.50;22.00;;;18.60;99.90;;;;;;8382773;28;20401;-82
2023/08/22 00:42:26;;;;;;;22.27;18.08;;;18.60;99.90;;;;;;8405710;28;20024;-82
2023/08/22 00:46:29;;;;;;;24.15;18.48;;;18.70;99.90;;;;;;8415022;28;20036;-82
2023/08/22 00:50:30;;;;;;;32.67;23.40;;;18.60;99.90;;;;;;8384189;28;20124;-82
2023/08/22 00:54:31;;;;;;;28.27;20.75;;;18.40;99.90;;;;;;8383180;28;20063;-81
2023/08/22 00:58:32;;;;;;;24.45;20.40;;;18.50;99.90;;;;;;8397973;28;20023;-82
2023/08/22 01:02:32;;;;;;;27.05;20.10;;;18.40;99.90;;;;;;8384585;28;20061;-82
2023/08/22 01:06:41;;;;;;;24.48;21.35;;;18.40;99.90;;;;;;8372010;28;20035;-82
2023/08/22 01:10:47;;;;;;;26.45;19.60;;;18.40;99.90;;;;;;8385653;28;20027;-82
2023/08/22 01:15:00;;;;;;;25.27;19.10;;;18.40;99.90;;;;;;8399193;28;20314;-82
2023/08/22 01:19:04;;;;;;;24.45;19.25;;;18.40;99.90;;;;;;8408677;28;20016;-82
2023/08/22 01:23:04;;;;;;;24.23;19.75;;;18.40;99.90;;;;;;8383525;28;20024;-82
2023/08/22 01:27:10;;;;;;;27.88;21.15;;;18.50;99.90;;;;;;8401338;28;20484;-82
2023/08/22 01:31:33;;;;;;;24.98;20.42;;;18.60;99.90;;;;;;8397676;28;20103;-82
2023/08/22 01:35:36;;;;;;;26.25;19.73;;;18.60;99.90;;;;;;8375268;28;20029;-82
2023/08/22 01:39:38;;;;;;;24.88;20.23;;;18.50;99.90;;;;;;8381645;28;20109;-81
2023/08/22 01:43:42;;;;;;;24.17;20.42;;;18.40;99.90;;;;;;8401675;28;20440;-82
2023/08/22 01:47:42;;;;;;;23.02;19.23;;;18.40;99.90;;;;;;8406187;28;20048;-82
2023/08/22 01:51:43;;;;;;;25.85;20.45;;;18.30;99.90;;;;;;8399468;28;20399;-82
2023/08/22 01:55:43;;;;;;;25.15;20.20;;;18.20;99.90;;;;;;8384565;28;20115;-82
2023/08/22 01:59:44;;;;;;;28.02;18.35;;;18.10;99.90;;;;;;8389663;28;20023;-82
2023/08/22 02:03:46;;;;;;;28.45;21.98;;;18.00;99.90;;;;;;8395480;28;20074;-82
2023/08/22 02:07:46;;;;;;;26.45;19.63;;;18.00;99.90;;;;;;8379389;28;20033;-83
2023/08/22 02:11:47;;;;;;;25.35;21.77;;;18.00;99.90;;;;;;8409612;28;20031;-82
2023/08/22 02:15:48;;;;;;;26.35;21.27;;;18.00;99.90;;;;;;8415192;28;20024;-82
2023/08/22 02:19:48;;;;;;;29.13;20.52;;;18.30;99.90;;;;;;8409421;28;20467;-82
2023/08/22 02:23:49;;;;;;;24.15;20.67;;;18.20;99.90;;;;;;8393663;28;20395;-81
2023/08/22 02:27:49;;;;;;;26.95;21.45;;;18.00;99.90;;;;;;8381197;28;20025;-82
2023/08/22 02:31:50;;;;;;;27.08;21.30;;;18.00;99.90;;;;;;8428771;28;20503;-81
2023/08/22 02:35:50;;;;;;;27.02;22.35;;;18.00;99.90;;;;;;8384228;28;20050;-82
2023/08/22 02:39:53;;;;;;;23.95;18.65;;;17.90;99.90;;;;;;8398883;28;20099;-82
2023/08/22 02:43:53;;;;;;;24.63;20.27;;;17.80;99.90;;;;;;8402530;28;20031;-81
2023/08/22 02:47:54;;;;;;;24.88;21.05;;;17.70;99.90;;;;;;8382449;28;20392;-82
2023/08/22 02:51:54;;;;;;;27.85;19.13;;;17.60;99.90;;;;;;8404785;28;20021;-82
2023/08/22 02:55:55;;;;;;;24.92;20.02;;;17.70;99.90;;;;;;8392893;28;20503;-81
2023/08/22 02:59:56;;;;;;;27.50;21.33;;;17.70;99.90;;;;;;8405365;28;20023;-82
2023/08/22 03:03:56;;;;;;;31.27;21.10;;;17.60;99.90;;;;;;8388386;28;20618;-82
2023/08/22 03:07:57;;;;;;;31.30;22.83;;;17.50;99.90;;;;;;8395466;28;20028;-82
2023/08/22 03:11:58;;;;;;;29.98;21.20;;;17.40;99.90;;;;;;8388672;28;20028;-82
2023/08/22 03:15:58;;;;;;;24.85;21.95;;;17.30;99.90;;;;;;8396869;28;20426;-82
2023/08/22 03:19:59;;;;;;;30.38;23.33;;;17.30;99.90;;;;;;8405369;28;20020;-82
2023/08/22 03:23:59;;;;;;;31.98;22.55;;;17.40;99.90;;;;;;8407034;28;20109;-81
2023/08/22 03:28:00;;;;;;;26.95;22.63;;;17.30;99.90;;;;;;8397614;28;20025;-82
2023/08/22 03:32:00;;;;;;;34.15;24.08;;;17.40;99.90;;;;;;8401628;28;20024;-82
2023/08/22 03:36:02;;;;;;;27.30;21.30;;;17.40;99.90;;;;;;8401296;28;20048;-82
2023/08/22 03:40:03;;;;;;;25.90;21.00;;;17.40;99.90;;;;;;8393465;28;20016;-82
2023/08/22 03:44:04;;;;;;;27.67;21.98;;;17.50;99.90;;;;;;8398517;28;20088;-82
2023/08/22 03:48:04;;;;;;;25.23;17.13;;;17.40;99.90;;;;;;8402273;28;20031;-82
2023/08/22 03:52:05;;;;;;;24.77;19.77;;;17.40;99.90;;;;;;8404101;28;20040;-81
2023/08/22 03:56:06;;;;;;;29.98;20.33;;;17.20;99.90;;;;;;8424198;28;20102;-81
2023/08/22 04:00:07;;;;;;;26.75;22.13;;;17.20;99.90;;;;;;8403252;28;20012;-82
2023/08/22 04:04:08;;;;;;;31.67;23.15;;;17.10;99.90;;;;;;8392825;28;20475;-82
2023/08/22 04:08:09;;;;;;;29.75;23.17;;;17.10;99.90;;;;;;8411560;28;20020;-82
2023/08/22 04:12:09;;;;;;;31.23;25.63;;;17.00;99.90;;;;;;8406320;28;20021;-81
2023/08/22 04:16:10;;;;;;;27.45;22.05;;;17.00;99.90;;;;;;8358179;28;20517;-81
2023/08/22 04:20:11;;;;;;;33.45;24.02;;;16.90;99.90;;;;;;8360549;28;20388;-81
2023/08/22 04:24:12;;;;;;;28.70;24.58;;;16.90;99.90;;;;;;8378005;28;20047;-81
2023/08/22 04:28:13;;;;;;;28.48;22.63;;;17.00;99.90;;;;;;8379793;28;20400;-82
2023/08/22 04:32:13;;;;;;;34.58;27.38;;;17.00;99.90;;;;;;8388668;28;20525;-82
2023/08/22 04:36:14;;;;;;;33.63;24.88;;;17.00;99.90;;;;;;8364021;28;20024;-81
2023/08/22 04:40:14;;;;;;;32.33;26.13;;;17.10;99.90;;;;;;8376844;28;20021;-80
2023/08/22 04:44:15;;;;;;;29.65;26.10;;;17.20;99.90;;;;;;8379457;28;20035;-77
2023/08/22 04:48:15;;;;;;;35.38;25.17;;;17.20;99.90;;;;;;8363510;28;20032;-78
2023/08/22 04:52:16;;;;;;;29.60;25.00;;;17.30;99.90;;;;;;8397537;28;20081;-78
2023/08/22 04:56:17;;;;;;;29.45;23.45;;;17.30;99.90;;;;;;8377206;28;20098;-78
2023/08/22 05:00:17;;;;;;;27.05;22.05;;;17.40;99.90;;;;;;8320635;22;20077;-80
2023/08/22 05:04:18;;;;;;;26.65;22.40;;;17.40;99.90;;;;;;8350740;28;20029;-80
2023/08/22 05:08:18;;;;;;;31.92;23.98;;;17.50;99.90;;;;;;8263536;28;20027;-80
2023/08/22 05:12:21;;;;;;;30.35;24.67;;;17.70;99.90;;;;;;8314148;28;20038;-80
2023/08/22 05:16:21;;;;;;;26.00;22.60;;;17.80;99.90;;;;;;8243976;28;20019;-80
2023/08/22 05:20:22;;;;;;;29.45;22.38;;;18.10;99.90;;;;;;8317427;28;20520;-80
2023/08/22 05:24:22;;;;;;;27.98;21.15;;;18.10;99.90;;;;;;8247093;28;20027;-79
2023/08/22 05:28:23;;;;;;;25.75;21.10;;;18.20;99.90;;;;;;8308788;28;20092;-80
2023/08/22 05:32:23;;;;;;;23.63;19.17;;;18.30;99.90;;;;;;8312497;28;20029;-79
2023/08/22 05:36:24;;;;;;;27.58;18.70;;;18.80;99.90;;;;;;8243894;28;20172;-81
2023/08/22 05:40:24;;;;;;;25.85;19.60;;;18.90;99.90;;;;;;8246066;28;20034;-81
2023/08/22 05:44:25;;;;;;;27.77;19.13;;;19.10;99.90;;;;;;8304580;28;20038;-80
2023/08/22 05:48:25;;;;;;;30.77;19.13;;;19.20;99.90;;;;;;8245587;28;20091;-79
2023/08/22 05:52:26;;;;;;;23.73;18.38;;;19.20;99.90;;;;;;8248061;28;20739;-79
2023/08/22 05:56:26;;;;;;;19.05;16.70;;;19.80;99.90;;;;;;8240112;28;20102;-80
2023/08/22 06:00:27;;;;;;;17.35;14.65;;;20.70;99.90;;;;;;8309178;28;20034;-81
2023/08/22 06:04:27;;;;;;;18.38;13.90;;;21.50;99.90;;;;;;8247070;28;20033;-81
2023/08/22 06:08:28;;;;;;;19.83;14.32;;;22.10;99.90;;;;;;8297159;28;20067;-80
2023/08/22 06:12:31;;;;;;;21.38;12.90;;;23.20;99.90;;;;;;8315843;28;20498;-79
2023/08/22 06:16:32;;;;;;;19.95;13.60;;;23.40;99.90;;;;;;8313764;28;20029;-80
2023/08/22 06:20:37;;;;;;;18.45;13.65;;;23.70;99.90;;;;;;8241986;28;20380;-80
2023/08/22 06:24:38;;;;;;;15.85;13.48;;;23.70;99.90;;;;;;8316965;28;20114;-80
2023/08/22 06:28:38;;;;;;;16.05;13.68;;;23.80;99.90;;;;;;8311301;28;20033;-80
2023/08/22 06:32:39;;;;;;;19.58;13.20;;;23.90;99.90;;;;;;8255199;28;20038;-81
2023/08/22 06:36:40;;;;;;;15.63;12.88;;;24.00;99.90;;;;;;8249403;28;20190;-80
2023/08/22 06:40:41;;;;;;;15.90;12.98;;;24.40;99.90;;;;;;8309777;28;20019;-81
2023/08/22 06:44:41;;;;;;;15.85;13.00;;;24.70;99.90;;;;;;8257214;28;20046;-82
2023/08/22 06:48:42;;;;;;;17.52;12.70;;;25.40;99.90;;;;;;8315783;28;20019;-80
2023/08/22 06:52:43;;;;;;;15.70;12.10;;;26.30;99.90;;;;;;8321400;28;20065;-80
2023/08/22 06:56:44;;;;;;;17.10;12.43;;;27.50;99.90;;;;;;8292045;28;20026;-82
2023/08/22 07:00:44;;;;;;;17.50;11.45;;;28.00;99.90;;;;;;8316540;28;20053;-82
2023/08/22 07:04:45;;;;;;;14.93;11.27;;;28.30;99.90;;;;;;8255903;28;20038;-81
2023/08/22 07:08:45;;;;;;;14.68;11.05;;;28.50;99.90;;;;;;8313848;28;20026;-81
2023/08/22 07:12:46;;;;;;;15.57;11.50;;;28.60;99.90;;;;;;8319011;28;20490;-81
2023/08/22 07:16:46;;;;;;;16.08;11.35;;;28.70;99.90;;;;;;8340762;28;20020;-81
2023/08/22 07:20:51;;;;;;;16.85;12.32;;;28.90;99.90;;;;;;8327608;28;20304;-81
2023/08/22 07:24:52;;;;;;;18.55;13.05;;;29.10;99.90;;;;;;8274492;28;20030;-81
2023/08/22 07:28:52;;;;;;;18.88;12.40;;;29.20;99.90;;;;;;8319394;28;20372;-81
2023/08/22 07:32:53;;;;;;;17.63;11.23;;;29.40;99.90;;;;;;8258882;28;20057;-81
2023/08/22 07:36:53;;;;;;;16.92;12.02;;;29.40;99.90;;;;;;8260542;28;20592;-81
2023/08/22 07:40:54;;;;;;;19.67;11.48;;;29.40;99.90;;;;;;8317659;28;20010;-79
2023/08/22 07:44:54;;;;;;;15.80;12.48;;;29.20;99.90;;;;;;8338174;28;20048;-81
2023/08/22 07:48:55;;;;;;;21.20;13.57;;;29.10;99.90;;;;;;8332009;28;20056;-81
2023/08/22 07:52:55;;;;;;;30.30;17.80;;;29.40;99.90;;;;;;8319730;28;20099;-81
2023/08/22 07:56:56;;;;;;;20.98;12.48;;;30.10;99.90;;;;;;8260811;28;20052;-81
2023/08/22 08:00:56;;;;;;;21.40;12.82;;;30.40;99.90;;;;;;8248388;28;20406;-81
2023/08/22 08:04:57;;;;;;;16.50;12.43;;;30.60;99.90;;;;;;8325965;28;20032;-80
2023/08/22 08:08:57;;;;;;;17.95;11.88;;;30.40;99.90;;;;;;8311772;28;20027;-81
2023/08/22 08:12:58;;;;;;;18.98;12.55;;;30.70;99.90;;;;;;8318773;28;20094;-81
2023/08/22 08:16:58;;;;;;;16.13;12.10;;;30.60;99.90;;;;;;8316737;28;20023;-81
2023/08/22 08:20:59;;;;;;;18.55;11.40;;;30.50;99.90;;;;;;8347744;28;20030;-81
2023/08/22 08:25:00;;;;;;;19.65;11.18;;;30.90;99.90;;;;;;8313004;28;20034;-81
2023/08/22 08:29:00;;;;;;;18.20;11.93;;;31.30;99.90;;;;;;8274217;28;20111;-81
2023/08/22 08:33:05;;;;;;;15.88;11.60;;;31.50;99.90;;;;;;8311075;28;20076;-81
2023/08/22 08:37:05;;;;;;;13.35;10.77;;;31.50;99.90;;;;;;8296041;28;20064;-81
2023/08/22 08:41:08;;;;;;;14.13;10.52;;;31.70;99.90;;;;;;8272826;28;20031;-81
2023/08/22 08:45:09;;;;;;;17.13;11.13;;;31.70;99.90;;;;;;8259327;28;20049;-81
2023/08/22 08:49:11;;;;;;;15.73;10.98;;;32.00;99.90;;;;;;8314057;28;20367;-81
2023/08/22 08:53:12;;;;;;;15.60;10.80;;;31.80;99.90;;;;;;8248898;28;20053;-81
2023/08/22 08:57:14;;;;;;;18.20;11.30;;;31.50;99.90;;;;;;8318756;28;20022;-81
2023/08/22 09:01:15;;;;;;;14.77;11.00;;;31.30;99.90;;;;;;8273166;28;20030;-80
2023/08/22 09:05:15;;;;;;;17.40;10.95;;;31.40;99.90;;;;;;8311178;28;20027;-80
2023/08/22 09:09:17;;;;;;;16.65;11.75;;;31.70;99.90;;;;;;8276772;28;20029;-81
2023/08/22 09:13:29;;;;;;;12.93;10.70;;;31.90;99.90;;;;;;8249195;28;20045;-80
2023/08/22 09:17:30;;;;;;;18.92;11.10;;;31.90;99.90;;;;;;8354404;28;20047;-81
2023/08/22 09:21:31;;;;;;;14.52;10.85;;;32.10;99.90;;;;;;8309016;28;20028;-81
2023/08/22 09:25:41;;;;;;;12.40;10.75;;;32.00;99.90;;;;;;8309112;28;20023;-81
2023/08/22 09:29:42;;;;;;;12.07;10.20;;;32.00;99.90;;;;;;8314606;28;20498;-81
2023/08/22 09:33:47;;;;;;;12.75;9.43;;;32.20;99.90;;;;;;8323270;28;20121;-81
2023/08/22 09:37:48;;;;;;;15.23;10.57;;;32.00;99.90;;;;;;8331306;28;20027;-82
2023/08/22 09:41:56;;;;;;;13.65;9.70;;;32.10;99.90;;;;;;8319531;28;20050;-81
2023/08/22 09:45:57;;;;;;;11.40;8.90;;;32.30;99.90;;;;;;8331567;28;20590;-80
2023/08/22 09:50:05;;;;;;;10.57;8.75;;;32.60;99.90;;;;;;8340877;28;20030;-83
2023/08/22 09:54:06;;;;;;;13.10;9.23;;;32.80;99.90;;;;;;8339007;28;20021;-82
2023/08/22 09:58:07;;;;;;;10.57;7.93;;;32.90;99.90;;;;;;8336437;28;20509;-82
2023/08/22 10:02:08;;;;;;;12.05;7.80;;;33.20;99.90;;;;;;8326276;28;20052;-82
2023/08/22 10:06:14;;;;;;;9.68;7.75;;;33.40;99.90;;;;;;8311820;28;20030;-81
2023/08/22 10:10:15;;;;;;;11.50;7.93;;;33.30;99.90;;;;;;8270044;28;20095;-81
2023/08/22 10:14:45;;;;;;;8.25;7.28;;;33.10;99.90;;;;;;8261942;28;20030;-82
2023/08/22 10:18:47;;;;;;;9.50;7.57;;;33.10;99.90;;;;;;8342473;28;20021;-81
2023/08/22 10:22:47;;;;;;;11.05;7.15;;;33.30;99.90;;;;;;8335415;28;20118;-82
2023/08/22 10:27:09;;;;;;;9.65;7.60;;;33.60;99.90;;;;;;8298204;28;20029;-82
2023/08/22 10:31:13;;;;;;;8.30;7.00;;;34.00;99.90;;;;;;8281394;28;20032;-82
2023/08/22 10:35:13;;;;;;;8.48;6.97;;;34.70;99.90;;;;;;8336945;28;20066;-81
2023/08/22 10:39:40;;;;;;;11.48;6.68;;;34.90;99.90;;;;;;8267850;28;20021;-82
2023/08/22 10:43:41;;;;;;;8.82;6.28;;;34.80;99.90;;;;;;8358086;28;20074;-81
2023/08/22 10:47:42;;;;;;;9.02;6.22;;;34.90;99.90;;;;;;8326612;28;20111;-81
2023/08/22 10:51:43;;;;;;;8.05;6.70;;;34.60;99.90;;;;;;8334233;28;20034;-82
2023/08/22 10:55:44;;;;;;;8.43;6.50;;;35.10;99.90;;;;;;8326886;28;20029;-81
2023/08/22 10:59:54;;;;;;;12.48;6.28;;;36.10;99.90;;;;;;8301234;22;20514;-80
2023/08/22 11:03:55;;;;;;;7.07;5.97;;;36.70;97.40;;;;;;8275658;28;20052;-79
2023/08/22 11:07:56;;;;;;;7.38;6.32;;;37.00;97.40;;;;;;8267325;28;20034;-79
2023/08/22 11:11:57;;;;;;;8.45;6.53;;;37.20;96.80;;;;;;8314034;28;20031;-79
2023/08/22 11:15:59;;;;;;;7.80;5.70;;;37.60;95.00;;;;;;8261062;28;20022;-80
2023/08/22 11:20:00;;;;;;;8.90;6.40;;;37.50;94.60;;;;;;8319899;28;20023;-79
2023/08/22 11:24:01;;;;;;;10.15;6.22;;;37.10;94.10;;;;;;8351254;28;20022;-80
2023/08/22 11:28:02;;;;;;;8.75;6.32;;;36.80;94.40;;;;;;8244616;28;20075;-78
2023/08/22 11:32:03;;;;;;;8.30;6.82;;;37.50;97.70;;;;;;8272843;28;20505;-80
2023/08/22 11:36:04;;;;;;;9.88;6.63;;;39.20;94.00;;;;;;8339493;28;20022;-80
2023/08/22 11:40:09;;;;;;;12.38;6.90;;;39.10;92.00;;;;;;8343984;28;20022;-80
2023/08/22 11:44:12;;;;;;;9.25;6.63;;;39.90;91.40;;;;;;8276628;28;20097;-80
2023/08/22 11:48:16;;;;;;;8.20;6.10;;;40.30;82.20;;;;;;8347333;28;20025;-79
2023/08/22 11:52:17;;;;;;;9.57;5.00;;;39.90;85.90;;;;;;8346923;28;20026;-80
2023/08/22 11:56:18;;;;;;;7.47;5.13;;;40.90;78.70;;;;;;8272117;28;20076;-79
2023/08/22 12:00:19;;;;;;;5.80;4.90;;;40.40;74.70;;;;;;8276448;28;20680;-79
2023/08/22 12:04:20;;;;;;;5.25;4.70;;;39.40;75.20;;;;;;8262594;28;20039;-80
2023/08/22 12:08:20;;;;;;;17.58;5.28;;;39.40;76.00;;;;;;8247465;28;20046;-81
2023/08/22 12:12:21;;;;;;;7.55;5.13;;;39.50;75.50;;;;;;8322224;28;20022;-79
2023/08/22 12:16:21;;;;;;;6.60;5.25;;;39.20;73.90;;;;;;8328059;28;20118;-80
2023/08/22 12:20:22;;;;;;;9.48;5.20;;;39.40;75.90;;;;;;8255000;28;20528;-80
2023/08/22 12:24:23;;;;;;;11.13;4.97;;;38.80;79.40;;;;;;8334673;28;20094;-79
2023/08/22 12:28:24;;;;;;;5.88;4.82;;;38.20;79.40;;;;;;8236445;28;20023;-79
2023/08/22 12:32:24;;;;;;;6.78;4.57;;;37.10;83.50;;;;;;8339903;28;20029;-80
2023/08/22 12:36:25;;;;;;;9.35;4.95;;;37.90;80.10;;;;;;8269213;28;20018;-78
2023/08/22 12:40:25;;;;;;;10.68;4.78;;;38.40;80.50;;;;;;8263515;28;20499;-80
2023/08/22 12:44:26;;;;;;;5.50;4.43;;;38.70;81.70;;;;;;8264870;28;20033;-79
2023/08/22 12:48:26;;;;;;;4.88;4.22;;;40.20;71.30;;;;;;8343481;28;20490;-80
2023/08/22 12:52:27;;;;;;;5.25;4.68;;;40.10;69.20;;;;;;8324686;28;20037;-80
2023/08/22 12:56:27;;;;;;;6.20;4.57;;;40.50;69.00;;;;;;8313633;28;20026;-80
2023/08/22 13:00:28;;;;;;;6.43;4.38;;;40.10;71.60;;;;;;8315019;28;20045;-80
2023/08/22 13:04:28;;;;;;;7.32;4.88;;;41.10;66.60;;;;;;8244329;28;20057;-79
2023/08/22 13:08:29;;;;;;;8.38;4.93;;;41.50;65.80;;;;;;8274531;28;20493;-81
2023/08/22 13:12:29;;;;;;;5.50;4.55;;;42.90;62.30;;;;;;8266694;28;20042;-79
2023/08/22 13:16:30;;;;;;;7.40;4.53;;;42.50;61.20;;;;;;8344791;28;20030;-79
2023/08/22 13:20:30;;;;;;;5.75;4.40;;;41.70;61.80;;;;;;8342426;28;20489;-80
2023/08/22 13:24:32;;;;;;;7.10;4.47;;;41.80;61.20;;;;;;8340719;28;20030;-79
2023/08/22 13:28:32;;;;;;;5.32;4.57;;;40.30;69.10;;;;;;8321384;28;20121;-78
2023/08/22 13:32:33;;;;;;;5.18;4.68;;;39.90;65.50;;;;;;8314647;28;20624;-80
2023/08/22 13:36:33;;;;;;;7.57;4.72;;;38.70;67.30;;;;;;8261000;28;20022;-80
2023/08/22 13:40:34;;;;;;;6.97;4.85;;;36.40;71.50;;;;;;8324223;28;20034;-79
2023/08/22 13:44:35;;;;;;;6.57;4.82;;;34.80;78.10;;;;;;8328957;28;20076;-79
2023/08/22 13:48:35;;;;;;;5.18;4.20;;;35.40;81.70;;;;;;8333118;28;20498;-80
2023/08/22 13:52:36;;;;;;;6.00;4.45;;;39.30;66.70;;;;;;8334323;28;20403;-80
2023/08/22 13:56:36;;;;;;;8.40;4.07;;;40.70;65.80;;;;;;8276077;28;20022;-80
2023/08/22 14:00:37;;;;;;;7.57;4.40;;;40.40;66.30;;;;;;8332573;28;20037;-80
2023/08/22 14:04:37;;;;;;;6.78;4.10;;;41.20;63.60;;;;;;8265836;28;20034;-80
2023/08/22 14:08:38;;;;;;;5.07;4.05;;;42.40;57.60;;;;;;8333215;28;20094;-80
2023/08/22 14:12:38;;;;;;;5.22;3.55;;;42.90;58.40;;;;;;8248578;28;20027;-80
2023/08/22 14:16:39;;;;;;;6.75;4.30;;;41.40;58.50;;;;;;8312061;28;20094;-80
2023/08/22 14:20:42;;;;;;;6.95;4.57;;;41.30;59.50;;;;;;8241033;28;20058;-80
2023/08/22 14:24:43;;;;;;;6.40;4.30;;;40.90;58.00;;;;;;8307896;28;20482;-80
2023/08/22 14:28:43;;;;;;;6.82;3.80;;;43.20;57.50;;;;;;8304545;28;20015;-80
2023/08/22 14:32:44;;;;;;;6.50;4.30;;;43.10;56.30;;;;;;8306974;28;20133;-81
2023/08/22 14:36:45;;;;;;;4.10;3.70;;;44.60;54.50;;;;;;8303667;28;20037;-81
2023/08/22 14:40:58;;;;;;;11.05;4.15;;;44.80;54.20;;;;;;8304811;28;20542;-80
2023/08/22 14:44:59;;;;;;;7.05;4.43;;;41.80;56.40;;;;;;8265895;28;20026;-80
2023/08/22 14:48:59;;;;;;;9.15;4.47;;;41.80;60.40;;;;;;8308881;28;20045;-80
2023/08/22 14:53:00;;;;;;;5.40;4.13;;;42.40;54.80;;;;;;8234381;28;20033;-81
2023/08/22 14:57:00;;;;;;;4.97;3.88;;;43.70;54.00;;;;;;8323899;28;20027;-80
2023/08/22 15:01:01;;;;;;;7.47;4.40;;;43.80;52.10;;;;;;8259921;28;20030;-80
2023/08/22 15:05:02;;;;;;;4.10;3.63;;;44.70;52.50;;;;;;8343506;28;20030;-80
2023/08/22 15:09:04;;;;;;;6.18;3.80;;;44.60;51.90;;;;;;8350137;28;20018;-80
2023/08/22 15:13:04;;;;;;;5.63;3.95;;;44.30;52.20;;;;;;8329668;28;20050;-81
2023/08/22 15:17:05;;;;;;;5.43;3.90;;;44.50;51.00;;;;;;8321267;28;20026;-81
2023/08/22 15:21:05;;;;;;;4.50;3.40;;;43.40;55.80;;;;;;8326806;28;20038;-81
2023/08/22 15:25:06;;;;;;;5.47;3.70;;;43.50;52.50;;;;;;8321810;28;20529;-81
2023/08/22 15:29:07;;;;;;;4.68;4.28;;;42.70;55.50;;;;;;8262802;28;20101;-81
2023/08/22 15:33:08;;;;;;;9.25;4.45;;;42.50;54.20;;;;;;8247259;28;20043;-79
2023/08/22 15:37:08;;;;;;;7.18;4.85;;;43.00;55.20;;;;;;8257566;28;20030;-81
2023/08/22 15:41:10;;;;;;;4.40;3.60;;;43.50;51.60;;;;;;8316996;28;20490;-81
2023/08/22 15:45:11;;;;;;;7.47;3.92;;;41.30;60.60;;;;;;8312554;28;20056;-81
2023/08/22 15:49:11;;;;;;;5.60;3.45;;;40.90;56.30;;;;;;8265668;28;20023;-80
2023/08/22 15:53:12;;;;;;;6.43;3.70;;;41.60;55.20;;;;;;8338922;28;20019;-80
2023/08/22 15:57:13;;;;;;;4.88;3.63;;;41.20;57.20;;;;;;8317024;28;20026;-80
2023/08/22 16:01:13;;;;;;;7.88;3.85;;;38.40;56.50;;;;;;8326305;28;20088;-79
2023/08/22 16:05:14;;;;;;;11.02;4.30;;;36.30;68.40;;;;;;8275281;28;20029;-80
2023/08/22 16:09:15;;;;;;;5.30;4.30;;;34.80;66.30;;;;;;8342640;28;20072;-80
2023/08/22 16:13:15;;;;;;;6.05;4.18;;;34.00;71.40;;;;;;8338641;28;20529;-81
2023/08/22 16:17:16;;;;;;;7.38;4.20;;;33.40;76.40;;;;;;8328273;28;20478;-80
2023/08/22 16:21:16;;;;;;;4.53;4.00;;;32.80;80.90;;;;;;8349280;28;20516;-80
2023/08/22 16:25:17;;;;;;;7.63;4.57;;;32.30;79.60;;;;;;8330844;28;20092;-80
2023/08/22 16:29:18;;;;;;;6.90;4.50;;;32.20;86.90;;;;;;8262246;28;20036;-80
2023/08/22 16:33:19;;;;;;;6.53;4.50;;;32.00;77.60;;;;;;8261944;28;20391;-80
2023/08/22 16:37:19;;;;;;;7.45;4.47;;;31.80;86.50;;;;;;8319932;28;20022;-80
2023/08/22 16:41:21;;;;;;;5.43;4.07;;;31.70;90.00;;;;;;8343000;28;20027;-79
2023/08/22 16:45:21;;;;;;;6.32;4.72;;;31.40;88.70;;;;;;8342651;28;20033;-80
2023/08/22 16:49:22;;;;;;;7.85;4.60;;;31.10;93.50;;;;;;8331633;28;20028;-80
2023/08/22 16:53:22;;;;;;;9.38;4.18;;;30.80;93.30;;;;;;8310818;28;20031;-80
2023/08/22 16:57:23;;;;;;;7.88;4.55;;;30.60;92.20;;;;;;8322831;28;20068;-80
2023/08/22 17:01:23;;;;;;;8.70;4.55;;;30.40;94.40;;;;;;8443315;22;20130;-81
2023/08/22 17:05:25;;;;;;;6.80;4.22;;;30.10;97.50;;;;;;8426691;28;20012;-82
2023/08/22 17:09:26;;;;;;;6.97;4.18;;;29.80;98.10;;;;;;8429149;28;20043;-82
2023/08/22 17:13:26;;;;;;;5.63;4.70;;;29.40;98.60;;;;;;8428696;28;20104;-82
2023/08/22 17:17:27;;;;;;;6.55;4.80;;;29.20;99.00;;;;;;8404568;28;20036;-81
2023/08/22 17:21:27;;;;;;;5.18;4.38;;;28.90;99.90;;;;;;8417816;28;20539;-81
2023/08/22 17:25:28;;;;;;;5.07;4.20;;;28.70;99.90;;;;;;8402867;28;20413;-81
2023/08/22 17:29:29;;;;;;;10.07;4.63;;;28.60;99.90;;;;;;8407626;28;20028;-81
2023/08/22 17:33:35;;;;;;;94.95;7.40;;;28.50;99.90;;;;;;8447908;28;20111;-81
2023/08/22 17:37:35;;;;;;;23.45;5.68;;;28.40;99.90;;;;;;8420990;28;20040;-80
2023/08/22 17:41:36;;;;;;;7.57;4.45;;;28.60;99.90;;;;;;8422161;28;20028;-80
2023/08/22 17:45:36;;;;;;;7.82;4.80;;;28.00;99.90;;;;;;8429006;28;20031;-81
2023/08/22 17:49:37;;;;;;;8.80;4.40;;;27.60;99.90;;;;;;8440923;28;20053;-81
2023/08/22 17:53:37;;;;;;;7.57;4.72;;;27.30;99.90;;;;;;8424553;28;20027;-81
2023/08/22 17:57:38;;;;;;;8.18;4.95;;;27.30;99.90;;;;;;8422257;28;20055;-81
2023/08/22 18:01:38;;;;;;;7.25;4.90;;;26.80;99.90;;;;;;8425729;28;20027;-81
2023/08/22 18:05:41;;;;;;;5.13;4.55;;;26.60;99.90;;;;;;8412424;28;20023;-81
2023/08/22 18:09:41;;;;;;;13.73;4.72;;;26.60;99.90;;;;;;8408318;28;20030;-79
2023/08/22 18:13:42;;;;;;;11.20;5.25;;;26.60;99.90;;;;;;8405620;28;20028;-81
2023/08/22 18:17:42;;;;;;;7.32;5.03;;;26.50;99.90;;;;;;8397337;28;20133;-81
2023/08/22 18:21:43;;;;;;;7.43;5.18;;;26.10;99.90;;;;;;8415189;28;20733;-80
2023/08/22 18:25:43;;;;;;;10.80;5.57;;;26.00;99.90;;;;;;8449760;28;20035;-81
2023/08/22 18:29:44;;;;;;;9.32;5.07;;;26.00;99.90;;;;;;8436864;28;20080;-81
2023/08/22 18:33:44;;;;;;;5.75;5.15;;;25.90;99.90;;;;;;8409037;28;20070;-81
2023/08/22 18:37:45;;;;;;;6.22;4.93;;;25.90;99.90;;;;;;8422906;28;20447;-81
2023/08/22 18:41:45;;;;;;;9.27;5.00;;;25.90;99.90;;;;;;8418239;28;20035;-81
2023/08/22 18:45:47;;;;;;;6.10;4.68;;;25.90;99.90;;;;;;8420046;28;20032;-83
2023/08/22 18:49:47;;;;;;;5.95;4.78;;;25.90;99.90;;;;;;8418529;28;20028;-83
2023/08/22 18:53:48;;;;;;;10.05;5.43;;;25.60;99.90;;;;;;8429066;28;20089;-83
2023/08/22 18:57:48;;;;;;;9.70;5.72;;;25.40;99.90;;;;;;8429797;28;20023;-83
2023/08/22 19:01:49;;;;;;;8.10;4.68;;;25.30;99.90;;;;;;8429716;28;20657;-83
2023/08/22 19:05:51;;;;;;;7.55;4.90;;;25.30;99.90;;;;;;8423337;28;20029;-83
2023/08/22 19:09:51;;;;;;;11.02;5.97;;;25.40;99.90;;;;;;8445719;28;20103;-83
2023/08/22 19:13:52;;;;;;;7.53;5.20;;;25.20;99.90;;;;;;8421477;28;20032;-82
2023/08/22 19:17:52;;;;;;;8.43;5.47;;;25.20;99.90;;;;;;8406808;28;20051;-82
2023/08/22 19:21:53;;;;;;;7.90;5.53;;;25.10;99.90;;;;;;8419439;28;20116;-83
2023/08/22 19:26:00;;;;;;;14.90;6.10;;;25.10;99.90;;;;;;8429985;28;20032;-83
2023/08/22 19:30:05;;;;;;;11.15;6.22;;;24.80;99.90;;;;;;8430210;28;20023;-83
2023/08/22 19:34:05;;;;;;;11.50;6.10;;;24.20;99.90;;;;;;8422187;28;20170;-84
2023/08/22 19:38:06;;;;;;;8.50;5.40;;;24.00;99.90;;;;;;8416381;28;20024;-83
2023/08/22 19:42:06;;;;;;;9.95;5.65;;;23.90;99.90;;;;;;8429392;28;20076;-83
2023/08/22 19:46:07;;;;;;;8.80;5.70;;;24.00;99.90;;;;;;8426679;28;20031;-83
2023/08/22 19:50:08;;;;;;;8.50;5.40;;;24.20;99.90;;;;;;8399105;28;20032;-84
2023/08/22 19:54:09;;;;;;;6.05;5.45;;;24.10;99.90;;;;;;8412084;28;20024;-83
2023/08/22 19:58:10;;;;;;;7.10;5.60;;;23.90;99.90;;;;;;8425496;28;20046;-83
2023/08/22 20:02:11;;;;;;;6.95;5.70;;;23.80;99.90;;;;;;8447324;28;20020;-83
2023/08/22 20:06:11;;;;;;;11.60;6.07;;;23.60;99.90;;;;;;8415313;28;20020;-83
2023/08/22 20:10:12;;;;;;;7.88;5.68;;;23.60;99.90;;;;;;8418444;28;20031;-84
2023/08/22 20:14:12;;;;;;;6.80;5.20;;;23.40;99.90;;;;;;8428588;28;20024;-83
2023/08/22 20:18:13;;;;;;;7.25;5.40;;;23.50;99.90;;;;;;8435301;28;20028;-83
2023/08/22 20:22:13;;;;;;;10.35;5.80;;;23.60;99.90;;;;;;8427933;28;20575;-83
2023/08/22 20:26:14;;;;;;;7.75;5.55;;;23.50;99.90;;;;;;8430616;28;20030;-82
2023/08/22 20:30:15;;;;;;;8.25;5.35;;;23.60;99.90;;;;;;8434240;28;20094;-83
2023/08/22 20:34:16;;;;;;;10.50;5.70;;;23.60;99.90;;;;;;8420974;28;20027;-83
2023/08/22 20:38:16;;;;;;;7.50;5.65;;;23.50;99.90;;;;;;8420036;28;20050;-83